EHFD

F3-fb-1 Sea

F3-fb-1 Sea, The Netherlands
METAR EHFD 140225Z AUTO 12008KT 070V150 5000 -SHRA FEW007/// SCT009/// BKN011/// 04/02 Q1025 W///H///
Observed Flight Rules
Dec-14 @ 02:25 UTC (41 minutes ago) Marginal Visual Flight Rules
Wind Visibility Clouds Conditions
120° at 8 knots 5,005 meters
  • Few at 700' AGL
  • Scattered at 900' AGL
  • Broken at 1,100' AGL
  • Light Rain
Temperatures Readings
Current 4°C / 39°F
Dewpoint 2°C / 36°F
Humidity 87%
Altimeter 30.27" Hg
Pressure 1025 hPa
Elevation 50
METAR EHFD 140225Z AUTO 12008KT 070V150 5000 -SHRA FEW007/// SCT009/// BKN011/// 04/02 Q1025 W///H///
Observed Flight Rules
Dec-14 @ 02:25 UTC
(41 minutes ago)
MVFR
Wind Visibility
120° at 8 knots 5,005 meters
Clouds
  • Few at 700' AGL
  • Scattered at 900' AGL
  • Broken at 1,100' AGL
Conditions
  • Light Rain
Temperature Dewpoint
4°C / 39°F 2°C / 36°F
Humidity Altimeter Pressure
87% 30.27" Hg 1025 hPa